createdAt,value
2018-08-24T00:00:25.423Z,243.10
2018-08-24T00:01:25.479Z,247.00
2018-08-24T00:02:25.505Z,263.50
2018-08-24T00:03:25.545Z,261.70
2018-08-24T00:04:25.601Z,210.90
2018-08-24T00:05:25.990Z,238.00
2018-08-24T00:06:25.677Z,245.00
2018-08-24T00:07:25.811Z,250.10
2018-08-24T00:08:25.792Z,274.40
2018-08-24T00:09:26.354Z,268.70
2018-08-24T00:10:25.891Z,321.40
2018-08-24T00:11:26.187Z,279.30
2018-08-24T00:12:26.023Z,326.20
2018-08-24T00:13:26.030Z,274.40
2018-08-24T00:14:26.101Z,321.40
2018-08-24T00:15:26.107Z,304.50
2018-08-24T00:16:26.174Z,320.40
2018-08-24T00:17:26.232Z,298.10
2018-08-24T00:18:26.515Z,292.60
2018-08-24T00:19:26.321Z,294.80
2018-08-24T00:20:26.356Z,295.50
2018-08-24T00:21:26.395Z,299.80
2018-08-24T00:22:26.481Z,302.60
2018-08-24T00:23:26.808Z,296.00
2018-08-24T00:24:26.557Z,301.50
2018-08-24T00:25:26.603Z,307.40
2018-08-24T00:26:26.684Z,314.90
2018-08-24T00:27:26.703Z,303.20
2018-08-24T00:28:26.732Z,322.50
2018-08-24T00:29:26.768Z,310.90
2018-08-24T00:30:26.843Z,310.10
2018-08-24T00:31:26.927Z,308.30
2018-08-24T00:32:26.936Z,330.10
2018-08-24T00:33:26.976Z,323.20
2018-08-24T00:34:27.059Z,321.30
2018-08-24T00:35:27.082Z,304.10
2018-08-24T00:36:27.428Z,292.80
2018-08-24T00:37:27.158Z,286.90
2018-08-24T00:38:27.214Z,305.00
2018-08-24T00:39:27.263Z,286.00
2018-08-24T00:40:27.303Z,239.60
2018-08-24T00:41:27.372Z,230.10
2018-08-24T00:42:27.697Z,219.10
2018-08-24T00:43:27.458Z,227.00
2018-08-24T00:44:27.492Z,212.40
2018-08-24T00:45:27.547Z,205.50
2018-08-24T00:46:27.591Z,202.70
2018-08-24T00:47:27.678Z,203.00
2018-08-24T00:48:27.664Z,215.90
2018-08-24T00:49:27.964Z,200.90
2018-08-24T00:50:27.758Z,197.30
2018-08-24T00:51:27.825Z,195.30
2018-08-24T00:52:27.888Z,200.90
2018-08-24T00:53:27.908Z,196.50
2018-08-24T00:54:27.980Z,185.10
2018-08-24T00:55:28.271Z,195.00
2018-08-24T00:56:28.064Z,193.20
2018-08-24T00:57:28.162Z,198.70
2018-08-24T00:58:28.161Z,191.00
2018-08-24T00:59:28.206Z,186.00
2018-08-24T01:00:28.242Z,199.20
2018-08-24T01:01:28.303Z,190.30
2018-08-24T01:02:28.341Z,197.10
2018-08-24T01:03:28.403Z,208.30
2018-08-24T01:04:28.417Z,199.50
2018-08-24T01:05:28.505Z,196.10
2018-08-24T01:06:28.796Z,187.20
2018-08-24T01:07:28.613Z,188.40
2018-08-24T01:08:28.613Z,194.10
2018-08-24T01:09:28.668Z,197.70
2018-08-24T01:10:28.759Z,195.10
2018-08-24T01:11:28.816Z,188.80
2018-08-24T01:12:28.826Z,224.50
2018-08-24T01:13:29.131Z,195.00
2018-08-24T01:14:28.920Z,190.80
2018-08-24T01:15:28.958Z,197.40
2018-08-24T01:16:29.007Z,200.20
2018-08-24T01:17:29.051Z,203.70
2018-08-24T01:18:29.116Z,216.00
2018-08-24T01:19:29.143Z,201.60
2018-08-24T01:20:29.206Z,210.90
2018-08-24T01:21:29.240Z,200.30
2018-08-24T01:22:29.297Z,218.50
2018-08-24T01:23:29.352Z,217.10
2018-08-24T01:24:29.421Z,203.10
2018-08-24T01:25:29.506Z,215.50
2018-08-24T01:26:29.487Z,225.80
2018-08-24T01:27:29.535Z,220.40
2018-08-24T01:28:29.618Z,220.50
2018-08-24T01:29:29.617Z,238.30
2018-08-24T01:30:29.667Z,237.20
2018-08-24T01:31:29.749Z,223.30
2018-08-24T01:32:29.769Z,221.80
2018-08-24T01:33:29.870Z,221.00
2018-08-24T01:34:30.155Z,234.00
2018-08-24T01:35:29.916Z,232.80
2018-08-24T01:36:29.953Z,216.20
2018-08-24T01:37:30.018Z,233.20
2018-08-24T01:38:30.043Z,209.20
2018-08-24T01:39:30.096Z,214.70
2018-08-24T01:40:30.393Z,211.90
2018-08-24T01:41:30.204Z,206.70
2018-08-24T01:42:30.223Z,208.00
2018-08-24T01:43:30.280Z,203.60
2018-08-24T01:44:30.322Z,220.30
2018-08-24T01:45:30.377Z,204.50
2018-08-24T01:46:30.667Z,220.40
2018-08-24T01:47:30.468Z,210.00
2018-08-24T01:48:30.519Z,207.80
2018-08-24T01:49:30.564Z,221.00
2018-08-24T01:50:30.608Z,216.90
2018-08-24T01:51:30.664Z,201.70
2018-08-24T01:52:30.700Z,207.60
2018-08-24T01:53:30.726Z,202.20
2018-08-24T01:54:30.810Z,200.60
2018-08-24T01:55:30.849Z,216.40
2018-08-24T01:56:30.891Z,212.90
2018-08-24T01:57:30.991Z,219.70
2018-08-24T01:58:31.017Z,226.60
2018-08-24T01:59:31.057Z,225.90
2018-08-24T02:00:31.097Z,222.60
2018-08-24T02:01:31.166Z,215.00
2018-08-24T02:02:31.576Z,221.10
2018-08-24T02:03:31.256Z,210.40
2018-08-24T02:04:31.277Z,226.00
2018-08-24T02:05:31.325Z,221.30
2018-08-24T02:06:31.419Z,215.40
2018-08-24T02:07:31.718Z,212.40
2018-08-24T02:08:31.489Z,209.30
2018-08-24T02:09:31.519Z,221.70
2018-08-24T02:10:31.634Z,214.50
2018-08-24T02:11:31.622Z,212.60
2018-08-24T02:12:32.063Z,213.00
2018-08-24T02:13:31.745Z,209.70
2018-08-24T02:14:31.802Z,203.10
2018-08-24T02:15:31.782Z,207.00
2018-08-24T02:16:31.909Z,199.60
2018-08-24T02:17:32.076Z,198.90
2018-08-24T02:18:31.920Z,184.00
2018-08-24T02:19:31.989Z,200.70
2018-08-24T02:20:32.023Z,195.20
2018-08-24T02:21:32.105Z,192.70
2018-08-24T02:22:32.145Z,188.70
2018-08-24T02:23:32.221Z,189.20
2018-08-24T02:24:32.596Z,183.60
2018-08-24T02:25:32.242Z,183.00
2018-08-24T02:26:32.293Z,178.50
2018-08-24T02:27:32.331Z,181.60
2018-08-24T02:28:32.397Z,157.10
2018-08-24T02:29:32.548Z,180.50
2018-08-24T02:30:32.876Z,182.50
2018-08-24T02:31:32.625Z,191.80
2018-08-24T02:32:32.629Z,197.60
2018-08-24T02:33:32.661Z,174.50
2018-08-24T02:34:32.714Z,186.10
2018-08-24T02:35:32.771Z,211.40
2018-08-24T02:36:32.821Z,256.70
2018-08-24T02:37:32.803Z,289.50
2018-08-24T02:38:32.860Z,277.30
2018-08-24T02:39:32.905Z,258.20
2018-08-24T02:40:32.943Z,273.70
2018-08-24T02:41:33.005Z,242.10
2018-08-24T02:42:33.037Z,222.90
2018-08-24T02:43:33.151Z,198.20
2018-08-24T02:44:33.143Z,207.70
2018-08-24T02:45:33.181Z,196.80
2018-08-24T02:46:33.494Z,192.40
2018-08-24T02:47:33.270Z,186.00
2018-08-24T02:48:33.328Z,184.60
2018-08-24T02:49:33.375Z,184.20
2018-08-24T02:50:33.415Z,204.30
2018-08-24T02:51:33.512Z,189.40
2018-08-24T02:52:33.817Z,186.70
2018-08-24T02:53:33.556Z,208.50
2018-08-24T02:54:33.607Z,214.50
2018-08-24T02:55:33.667Z,213.20
2018-08-24T02:56:33.689Z,197.30
2018-08-24T02:57:34.063Z,185.10
2018-08-24T02:58:33.809Z,179.10
2018-08-24T02:59:33.886Z,179.00
2018-08-24T03:00:33.889Z,183.40
2018-08-24T03:01:33.979Z,182.20
2018-08-24T03:02:33.974Z,187.70
2018-08-24T03:03:34.019Z,187.30
2018-08-24T03:04:34.081Z,182.70
2018-08-24T03:05:34.289Z,194.20
2018-08-24T03:06:34.174Z,188.10
2018-08-24T03:07:34.207Z,172.90
2018-08-24T03:08:34.291Z,180.00
2018-08-24T03:09:34.594Z,183.50
2018-08-24T03:10:34.331Z,177.50
2018-08-24T03:11:34.394Z,183.80
2018-08-24T03:12:34.424Z,177.60
2018-08-24T03:13:34.498Z,186.90
2018-08-24T03:14:34.525Z,194.60
2018-08-24T03:15:34.840Z,198.20
2018-08-24T03:16:34.618Z,192.90
2018-08-24T03:17:34.666Z,198.40
2018-08-24T03:18:34.702Z,211.00
2018-08-24T03:19:34.740Z,182.30
2018-08-24T03:20:34.792Z,188.40
2018-08-24T03:21:34.858Z,194.60
2018-08-24T03:22:34.907Z,191.30
2018-08-24T03:23:34.933Z,192.60
2018-08-24T03:24:34.983Z,213.20
2018-08-24T03:25:35.297Z,193.30
2018-08-24T03:26:35.074Z,200.90
2018-08-24T03:27:35.168Z,199.20
2018-08-24T03:28:35.182Z,212.40
2018-08-24T03:29:35.211Z,207.40
2018-08-24T03:30:35.281Z,203.40
2018-08-24T03:31:35.686Z,229.00
2018-08-24T03:32:35.365Z,209.40
2018-08-24T03:33:35.435Z,181.30
2018-08-24T03:34:35.476Z,197.50
2018-08-24T03:35:35.515Z,186.00
2018-08-24T03:36:35.567Z,174.90
2018-08-24T03:37:35.887Z,181.80
2018-08-24T03:38:35.619Z,184.20
2018-08-24T03:39:35.719Z,170.40
2018-08-24T03:40:35.709Z,180.20
2018-08-24T03:41:35.772Z,200.10
2018-08-24T03:42:35.807Z,169.80
2018-08-24T03:43:36.170Z,182.00
2018-08-24T03:44:35.914Z,173.20
2018-08-24T03:45:35.958Z,173.40
2018-08-24T03:46:36.050Z,173.50
2018-08-24T03:47:36.088Z,165.80
2018-08-24T03:48:36.089Z,167.10
2018-08-24T03:49:36.122Z,182.40
2018-08-24T03:50:36.445Z,182.00
2018-08-24T03:51:36.214Z,182.70
2018-08-24T03:52:36.251Z,187.10
2018-08-24T03:53:36.346Z,176.90
2018-08-24T03:54:36.398Z,177.40
2018-08-24T03:55:36.398Z,203.10
2018-08-24T03:56:36.703Z,177.40
2018-08-24T03:57:36.476Z,184.90
2018-08-24T03:58:36.544Z,180.70
2018-08-24T03:59:36.599Z,189.90
2018-08-24T04:00:36.629Z,172.20
2018-08-24T04:01:36.670Z,179.10
2018-08-24T04:02:36.738Z,168.00
2018-08-24T04:03:36.790Z,175.10
2018-08-24T04:04:36.823Z,175.90
2018-08-24T04:05:36.872Z,183.30
2018-08-24T04:06:36.903Z,186.20
2018-08-24T04:07:36.954Z,195.10
2018-08-24T04:08:37.008Z,181.00
2018-08-24T04:09:37.023Z,181.90
2018-08-24T04:10:37.151Z,177.20
2018-08-24T04:11:37.140Z,187.10
2018-08-24T04:12:37.252Z,182.10
2018-08-24T04:13:37.215Z,179.40
2018-08-24T04:14:37.284Z,181.70
2018-08-24T04:15:37.314Z,185.60
2018-08-24T04:16:37.414Z,185.00
2018-08-24T04:17:37.431Z,189.20
2018-08-24T04:18:37.486Z,191.20
2018-08-24T04:19:37.585Z,192.30
2018-08-24T04:20:37.585Z,180.50
2018-08-24T04:21:37.583Z,178.00
2018-08-24T04:22:37.656Z,165.00
2018-08-24T04:23:37.686Z,172.30
2018-08-24T04:24:37.728Z,172.20
2018-08-24T04:25:37.881Z,157.90
2018-08-24T04:26:37.819Z,163.70
2018-08-24T04:27:38.170Z,157.00
2018-08-24T04:28:37.913Z,155.00
2018-08-24T04:29:37.954Z,160.30
2018-08-24T04:30:37.992Z,160.00
2018-08-24T04:31:38.043Z,164.60
2018-08-24T04:32:38.099Z,164.90
2018-08-24T04:33:38.166Z,167.10
2018-08-24T04:34:38.449Z,171.50
2018-08-24T04:35:38.250Z,172.10
2018-08-24T04:36:38.279Z,173.00
2018-08-24T04:37:38.339Z,160.80
2018-08-24T04:38:38.370Z,183.60
2018-08-24T04:39:38.404Z,172.50
2018-08-24T04:40:38.760Z,165.20
2018-08-24T04:41:38.549Z,169.70
2018-08-24T04:42:38.592Z,174.30
2018-08-24T04:43:38.603Z,176.70
2018-08-24T04:44:38.657Z,232.20
2018-08-24T04:45:38.821Z,211.00
2018-08-24T04:46:39.039Z,229.10
2018-08-24T04:47:38.778Z,213.80
2018-08-24T04:48:38.857Z,192.50
2018-08-24T04:49:38.885Z,192.00
2018-08-24T04:50:38.933Z,202.40
2018-08-24T04:51:39.279Z,180.50
2018-08-24T04:52:39.020Z,180.50
2018-08-24T04:53:39.067Z,188.10
2018-08-24T04:54:39.095Z,182.60
2018-08-24T04:55:39.167Z,188.00
2018-08-24T04:56:39.199Z,186.20
2018-08-24T04:57:39.484Z,181.00
2018-08-24T04:58:39.267Z,188.50
2018-08-24T04:59:39.370Z,207.10
2018-08-24T05:00:39.389Z,187.60
2018-08-24T05:01:39.402Z,181.20
2018-08-24T05:02:39.508Z,174.10
2018-08-24T05:03:39.865Z,180.20
2018-08-24T05:04:39.562Z,183.80
2018-08-24T05:05:39.653Z,175.60
2018-08-24T05:06:39.651Z,183.80
2018-08-24T05:07:39.692Z,186.20
2018-08-24T05:08:39.767Z,179.60
2018-08-24T05:09:39.798Z,190.30
2018-08-24T05:10:39.821Z,206.80
2018-08-24T05:11:39.888Z,195.60
2018-08-24T05:12:39.938Z,186.70
2018-08-24T05:13:39.974Z,204.30
2018-08-24T05:14:40.333Z,187.20
2018-08-24T05:15:40.075Z,178.40
2018-08-24T05:16:40.128Z,316.30
2018-08-24T05:17:40.174Z,184.60
2018-08-24T05:18:40.189Z,182.70
2018-08-24T05:19:40.245Z,178.00
2018-08-24T05:20:40.280Z,162.00
2018-08-24T05:21:40.594Z,171.60
2018-08-24T05:22:40.377Z,173.60
2018-08-24T05:23:40.440Z,165.20
2018-08-24T05:24:40.506Z,167.30
2018-08-24T05:25:40.524Z,159.00
2018-08-24T05:26:40.860Z,164.30
2018-08-24T05:27:40.576Z,169.00
2018-08-24T05:28:40.663Z,162.80
2018-08-24T05:29:40.733Z,168.20
2018-08-24T05:30:40.736Z,149.90
2018-08-24T05:31:40.775Z,157.40
2018-08-24T05:32:40.833Z,153.80
2018-08-24T05:33:41.169Z,170.10
2018-08-24T05:34:40.923Z,159.50
2018-08-24T05:35:41.057Z,169.10
2018-08-24T05:36:41.012Z,159.50
2018-08-24T05:37:41.063Z,154.30
2018-08-24T05:38:41.410Z,149.80
2018-08-24T05:39:41.136Z,155.40
2018-08-24T05:40:41.187Z,148.90
2018-08-24T05:41:41.235Z,147.50
2018-08-24T05:42:41.298Z,149.60
2018-08-24T05:43:41.305Z,146.60
2018-08-24T05:44:41.639Z,146.40
2018-08-24T05:45:41.427Z,144.00
2018-08-24T05:46:41.456Z,144.10
2018-08-24T05:47:41.512Z,142.40
2018-08-24T05:48:41.558Z,137.90
2018-08-24T05:49:41.585Z,146.30
2018-08-24T05:50:41.933Z,144.40
2018-08-24T05:51:41.740Z,145.10
2018-08-24T05:52:41.730Z,143.60
2018-08-24T05:53:41.799Z,140.90
2018-08-24T05:54:41.824Z,142.40
2018-08-24T05:55:41.975Z,134.70
2018-08-24T05:56:41.924Z,138.20
2018-08-24T05:57:42.004Z,135.10
2018-08-24T05:58:42.007Z,139.00
2018-08-24T05:59:42.046Z,139.20
2018-08-24T06:00:42.106Z,137.40
2018-08-24T06:01:42.285Z,139.20
2018-08-24T06:02:42.213Z,139.70
2018-08-24T06:03:42.232Z,155.50
2018-08-24T06:04:42.280Z,148.00
2018-08-24T06:05:42.340Z,149.40
2018-08-24T06:06:42.365Z,148.20
2018-08-24T06:07:42.462Z,132.70
2018-08-24T06:08:42.458Z,127.20
2018-08-24T06:09:42.498Z,129.40
2018-08-24T06:10:42.561Z,123.70
2018-08-24T06:11:42.625Z,119.30
2018-08-24T06:12:42.937Z,123.00
2018-08-24T06:13:42.696Z,128.00
2018-08-24T06:14:42.753Z,122.30
2018-08-24T06:15:42.805Z,126.90
2018-08-24T06:16:42.856Z,128.60
2018-08-24T06:17:42.883Z,128.10
2018-08-24T06:18:43.244Z,124.30
2018-08-24T06:19:43.013Z,129.00
2018-08-24T06:20:43.027Z,127.60
2018-08-24T06:21:43.068Z,114.70
2018-08-24T06:22:43.094Z,123.60
2018-08-24T06:23:43.164Z,116.40
2018-08-24T06:24:43.213Z,116.60
2018-08-24T06:25:43.258Z,118.20
2018-08-24T06:26:43.308Z,117.90
2018-08-24T06:27:43.352Z,121.30
2018-08-24T06:28:43.664Z,115.70
2018-08-24T06:29:43.713Z,114.20
2018-08-24T06:30:43.477Z,116.10
2018-08-24T06:31:43.516Z,118.60
2018-08-24T06:32:43.629Z,128.30
2018-08-24T06:33:43.609Z,129.20
2018-08-24T06:34:43.641Z,174.30
2018-08-24T06:35:44.007Z,140.70
2018-08-24T06:36:43.747Z,122.70
2018-08-24T06:37:43.801Z,130.00
2018-08-24T06:38:43.867Z,132.30
2018-08-24T06:39:43.883Z,150.40
2018-08-24T06:40:44.159Z,127.10
2018-08-24T06:41:43.968Z,141.50
2018-08-24T06:42:43.992Z,142.80
2018-08-24T06:43:44.071Z,131.90
2018-08-24T06:44:44.098Z,133.60
2018-08-24T06:45:44.153Z,134.10
2018-08-24T06:46:44.433Z,137.30
2018-08-24T06:47:44.378Z,141.90
2018-08-24T06:48:44.301Z,125.80
2018-08-24T06:49:44.316Z,130.70
2018-08-24T06:50:44.369Z,131.10
2018-08-24T06:51:44.425Z,127.60
2018-08-24T06:52:44.711Z,124.80
2018-08-24T06:53:44.680Z,122.50
2018-08-24T06:54:44.541Z,125.00
2018-08-24T06:55:44.608Z,132.10
2018-08-24T06:56:44.632Z,126.10
2018-08-24T06:57:44.722Z,130.40
2018-08-24T06:58:44.731Z,125.90
2018-08-24T06:59:44.815Z,124.10
2018-08-24T07:00:44.809Z,120.30
2018-08-24T07:01:44.864Z,122.60
2018-08-24T07:02:45.149Z,125.00
2018-08-24T07:03:45.213Z,130.70
2018-08-24T07:04:44.978Z,149.60
2018-08-24T07:05:45.070Z,173.10
2018-08-24T07:06:45.089Z,135.10
2018-08-24T07:07:45.144Z,131.40
2018-08-24T07:08:45.182Z,126.40
2018-08-24T07:09:45.514Z,134.50
2018-08-24T07:10:45.267Z,127.10
2018-08-24T07:11:45.287Z,137.30
2018-08-24T07:12:45.401Z,123.80
2018-08-24T07:13:45.377Z,117.70
2018-08-24T07:14:45.692Z,126.40
2018-08-24T07:15:45.493Z,120.00
2018-08-24T07:16:45.556Z,118.10
2018-08-24T07:17:45.567Z,118.70
2018-08-24T07:18:45.654Z,115.40
2018-08-24T07:19:45.677Z,115.40
2018-08-24T07:20:45.712Z,121.30
2018-08-24T07:21:45.757Z,122.00
2018-08-24T07:22:45.831Z,114.20
2018-08-24T07:23:45.853Z,117.60
2018-08-24T07:24:45.875Z,110.20
2018-08-24T07:25:45.950Z,125.70
2018-08-24T07:26:45.980Z,113.20
2018-08-24T07:27:46.027Z,114.30
2018-08-24T07:28:46.060Z,117.10
2018-08-24T07:29:46.108Z,113.20
2018-08-24T07:30:46.262Z,115.50
2018-08-24T07:31:46.193Z,112.10
2018-08-24T07:32:46.248Z,115.20
2018-08-24T07:33:46.300Z,113.90
2018-08-24T07:34:46.336Z,117.70
2018-08-24T07:35:46.677Z,116.90
2018-08-24T07:36:46.434Z,116.40
2018-08-24T07:37:46.452Z,132.30
2018-08-24T07:38:46.491Z,112.30
2018-08-24T07:39:46.559Z,110.20
2018-08-24T07:40:46.592Z,116.90
2018-08-24T07:41:46.660Z,113.30
2018-08-24T07:42:46.701Z,113.80
2018-08-24T07:43:46.758Z,115.80
2018-08-24T07:44:46.822Z,118.90
2018-08-24T07:45:46.834Z,120.30
2018-08-24T07:46:47.165Z,120.40
2018-08-24T07:47:47.148Z,115.70
2018-08-24T07:48:46.963Z,117.30
2018-08-24T07:49:47.003Z,120.40
2018-08-24T07:50:47.123Z,120.10
2018-08-24T07:51:47.078Z,117.70
2018-08-24T07:52:47.133Z,119.30
2018-08-24T07:53:47.513Z,142.80
2018-08-24T07:54:47.282Z,120.50
2018-08-24T07:55:47.267Z,120.30
2018-08-24T07:56:47.307Z,120.40
2018-08-24T07:57:47.336Z,119.50
2018-08-24T07:58:47.388Z,119.50
2018-08-24T07:59:47.687Z,123.90
2018-08-24T08:00:47.484Z,127.00
2018-08-24T08:01:47.542Z,125.60
2018-08-24T08:02:47.563Z,129.30
2018-08-24T08:03:47.678Z,129.40
2018-08-24T08:04:47.666Z,118.30
2018-08-24T08:05:47.709Z,127.10
2018-08-24T08:06:48.019Z,145.10
2018-08-24T08:07:47.813Z,123.20
2018-08-24T08:08:47.832Z,133.40
2018-08-24T08:09:47.933Z,138.40
2018-08-24T08:10:47.942Z,127.70
2018-08-24T08:11:47.986Z,130.60
2018-08-24T08:12:48.281Z,167.60
2018-08-24T08:13:48.059Z,124.00
2018-08-24T08:14:48.104Z,130.90
2018-08-24T08:15:48.140Z,130.30
2018-08-24T08:16:48.178Z,126.70
2018-08-24T08:17:48.539Z,139.70
2018-08-24T08:18:48.297Z,142.20
2018-08-24T08:19:48.370Z,129.40
2018-08-24T08:20:48.364Z,132.20
2018-08-24T08:21:48.400Z,142.80
2018-08-24T08:22:48.476Z,131.50
2018-08-24T08:23:48.521Z,134.50
2018-08-24T08:24:48.639Z,166.60
2018-08-24T08:25:48.599Z,190.20
2018-08-24T08:26:48.632Z,226.50
2018-08-24T08:27:48.673Z,132.60
2018-08-24T08:28:49.040Z,304.20
2018-08-24T08:29:48.777Z,146.00
2018-08-24T08:30:48.824Z,223.70
2018-08-24T08:31:48.861Z,130.80
2018-08-24T08:32:48.903Z,128.80
2018-08-24T08:33:48.952Z,192.10
2018-08-24T08:34:48.998Z,130.00
2018-08-24T08:35:49.028Z,257.40
2018-08-24T08:36:49.085Z,176.20
2018-08-24T08:37:49.118Z,381.60
2018-08-24T08:38:49.206Z,130.00
2018-08-24T08:39:49.460Z,129.70
2018-08-24T08:40:49.262Z,132.00
2018-08-24T08:41:49.297Z,140.30
2018-08-24T08:42:49.335Z,147.80
2018-08-24T08:43:49.374Z,140.90
2018-08-24T08:44:49.437Z,143.30
2018-08-24T08:45:49.728Z,174.50
2018-08-24T08:46:49.526Z,280.60
2018-08-24T08:47:49.576Z,143.30
2018-08-24T08:48:49.591Z,225.40
2018-08-24T08:49:49.621Z,206.10
2018-08-24T08:50:50.004Z,137.60
2018-08-24T08:51:49.779Z,142.40
2018-08-24T08:52:49.776Z,158.80
2018-08-24T08:53:49.828Z,146.30
2018-08-24T08:54:49.872Z,153.00
2018-08-24T08:55:49.908Z,156.00
2018-08-24T08:56:49.950Z,201.30
2018-08-24T08:57:50.307Z,150.70
2018-08-24T08:58:50.052Z,245.30
2018-08-24T08:59:50.105Z,150.40
2018-08-24T09:00:50.121Z,147.10
2018-08-24T09:01:50.182Z,153.90
2018-08-24T09:02:50.209Z,155.00
2018-08-24T09:03:50.278Z,155.30
2018-08-24T09:04:50.334Z,160.60
2018-08-24T09:05:50.354Z,204.10
2018-08-24T09:06:50.384Z,154.70
2018-08-24T09:07:50.431Z,161.50
2018-08-24T09:08:50.483Z,169.30
2018-08-24T09:09:50.522Z,172.40
2018-08-24T09:10:50.557Z,196.40
2018-08-24T09:11:50.618Z,188.90
2018-08-24T09:12:50.949Z,216.60
2018-08-24T09:13:50.717Z,249.30
2018-08-24T09:14:50.719Z,220.80
2018-08-24T09:15:50.769Z,162.30
2018-08-24T09:16:50.815Z,150.30
2018-08-24T09:17:50.898Z,146.50
2018-08-24T09:18:51.222Z,218.80
2018-08-24T09:19:50.965Z,194.30
2018-08-24T09:20:51.048Z,153.60
2018-08-24T09:21:51.065Z,153.30
2018-08-24T09:22:51.082Z,156.70
2018-08-24T09:23:51.145Z,150.70
2018-08-24T09:24:51.176Z,146.00
2018-08-24T09:25:51.256Z,144.00
2018-08-24T09:26:51.303Z,143.20
2018-08-24T09:27:51.320Z,135.30
2018-08-24T09:28:51.347Z,139.00
2018-08-24T09:29:51.399Z,135.40
2018-08-24T09:30:51.485Z,140.70
2018-08-24T09:31:51.488Z,171.50
2018-08-24T09:32:51.555Z,142.30
2018-08-24T09:33:51.571Z,140.20
2018-08-24T09:34:51.623Z,140.80
2018-08-24T09:35:51.945Z,137.10
2018-08-24T09:36:51.747Z,128.30
2018-08-24T09:37:51.753Z,122.00
2018-08-24T09:38:51.805Z,126.10
2018-08-24T09:39:51.851Z,127.70
2018-08-24T09:40:51.893Z,126.20
2018-08-24T09:41:51.937Z,128.30
2018-08-24T09:42:52.280Z,132.00
2018-08-24T09:43:52.009Z,125.60
2018-08-24T09:44:52.075Z,134.60
2018-08-24T09:45:52.120Z,133.80
2018-08-24T09:46:52.180Z,126.60
2018-08-24T09:47:52.228Z,131.90
2018-08-24T09:48:52.259Z,128.90
2018-08-24T09:49:52.287Z,132.00
2018-08-24T09:50:52.368Z,130.90
2018-08-24T09:51:52.375Z,140.40
2018-08-24T09:52:52.477Z,139.80
2018-08-24T09:53:52.468Z,132.20
2018-08-24T09:54:52.500Z,139.80
2018-08-24T09:55:52.560Z,149.30
2018-08-24T09:56:52.668Z,142.30
2018-08-24T09:57:52.649Z,143.00
2018-08-24T09:58:52.679Z,144.40
2018-08-24T09:59:53.045Z,143.30
2018-08-24T10:00:52.783Z,133.20
2018-08-24T10:01:52.846Z,152.00
2018-08-24T10:02:52.895Z,146.90
2018-08-24T10:03:52.906Z,143.50
2018-08-24T10:04:52.979Z,145.70
2018-08-24T10:05:53.255Z,145.10
2018-08-24T10:06:53.121Z,139.20
2018-08-24T10:07:53.130Z,149.90
2018-08-24T10:08:53.156Z,143.20
2018-08-24T10:09:53.189Z,141.90
2018-08-24T10:10:53.240Z,145.50
2018-08-24T10:11:53.292Z,143.10
2018-08-24T10:12:53.626Z,133.80
2018-08-24T10:13:53.372Z,123.00
2018-08-24T10:14:53.402Z,126.10
2018-08-24T10:15:53.450Z,113.90
2018-08-24T10:16:53.530Z,128.40
2018-08-24T10:17:53.526Z,119.00
2018-08-24T10:18:53.848Z,135.60
2018-08-24T10:19:53.623Z,119.30
2018-08-24T10:20:53.707Z,120.70
2018-08-24T10:21:53.752Z,126.10
2018-08-24T10:22:53.788Z,129.30
2018-08-24T10:23:53.837Z,122.80
2018-08-24T10:24:53.887Z,126.70
2018-08-24T10:25:53.929Z,133.20
2018-08-24T10:26:53.974Z,131.20
2018-08-24T10:27:54.009Z,131.20
2018-08-24T10:28:54.065Z,130.10
2018-08-24T10:29:54.158Z,143.10
2018-08-24T10:30:54.412Z,149.20
2018-08-24T10:31:54.183Z,150.70
2018-08-24T10:32:54.242Z,198.00
2018-08-24T10:33:54.466Z,149.60
2018-08-24T10:34:54.346Z,200.60
2018-08-24T10:35:54.375Z,173.30
2018-08-24T10:36:54.450Z,242.90
2018-08-24T10:37:54.510Z,186.60
2018-08-24T10:38:54.515Z,155.10
2018-08-24T10:39:54.603Z,177.90
2018-08-24T10:40:54.673Z,172.80
2018-08-24T10:41:54.655Z,172.80
2018-08-24T10:42:54.754Z,169.40
2018-08-24T10:43:54.737Z,181.10
2018-08-24T10:44:54.821Z,181.90
2018-08-24T10:45:54.818Z,162.00
2018-08-24T10:46:54.877Z,178.20
2018-08-24T10:47:54.944Z,177.80
2018-08-24T10:48:54.993Z,157.30
2018-08-24T10:49:55.071Z,200.30
2018-08-24T10:50:55.138Z,182.10
2018-08-24T10:51:55.116Z,157.40
2018-08-24T10:52:55.183Z,192.60
2018-08-24T10:53:55.211Z,194.40
2018-08-24T10:54:55.292Z,188.30
2018-08-24T10:55:55.356Z,197.20
2018-08-24T10:56:55.340Z,313.30
2018-08-24T10:57:55.438Z,219.00
2018-08-24T10:58:55.757Z,192.20
2018-08-24T10:59:55.494Z,176.00
2018-08-24T11:00:55.546Z,142.20
2018-08-24T11:01:55.609Z,360.40
2018-08-24T11:02:55.634Z,167.70
2018-08-24T11:03:55.691Z,473.40
2018-08-24T11:04:55.749Z,306.70
2018-08-24T11:05:55.776Z,429.40
2018-08-24T11:06:55.847Z,115.10
2018-08-24T11:07:55.877Z,114.50
2018-08-24T11:08:55.938Z,110.30
2018-08-24T11:09:55.967Z,136.70
2018-08-24T11:10:56.034Z,121.80
2018-08-24T11:11:56.074Z,113.50
2018-08-24T11:12:56.180Z,108.90
2018-08-24T11:13:56.170Z,124.30
2018-08-24T11:14:56.217Z,154.50
2018-08-24T11:15:56.286Z,127.00
2018-08-24T11:16:56.420Z,135.60
2018-08-24T11:17:56.367Z,249.50
2018-08-24T11:18:56.445Z,134.50
2018-08-24T11:19:56.492Z,392.40
2018-08-24T11:20:56.548Z,387.50
2018-08-24T11:21:56.572Z,139.70
2018-08-24T11:22:56.678Z,181.40
2018-08-24T11:23:56.661Z,115.20
2018-08-24T11:24:56.784Z,122.70
2018-08-24T11:25:56.776Z,81.40
2018-08-24T11:26:56.928Z,62.00
2018-08-24T11:27:56.890Z,61.30
2018-08-24T11:28:56.942Z,66.40
2018-08-24T11:29:57.004Z,62.90
2018-08-24T11:30:57.058Z,72.50
2018-08-24T11:31:57.103Z,90.40
2018-08-24T11:32:57.445Z,69.80
2018-08-24T11:33:57.224Z,69.70
2018-08-24T11:34:57.249Z,115.90
2018-08-24T11:35:57.379Z,102.60
2018-08-24T11:36:57.347Z,81.70
2018-08-24T11:37:57.413Z,102.80
2018-08-24T11:38:57.780Z,94.30
2018-08-24T11:39:57.516Z,101.10
2018-08-24T11:40:57.578Z,95.00
2018-08-24T11:41:57.615Z,105.40
2018-08-24T11:42:57.664Z,97.90
2018-08-24T11:43:57.734Z,343.20
2018-08-24T11:44:57.768Z,112.00
2018-08-24T11:45:57.822Z,182.40
2018-08-24T11:46:57.892Z,151.70
2018-08-24T11:47:58.085Z,119.20
2018-08-24T11:48:58.014Z,270.30
2018-08-24T11:49:58.050Z,145.40
2018-08-24T11:50:58.096Z,349.30
2018-08-24T11:51:58.162Z,221.70
2018-08-24T11:52:58.201Z,116.20
2018-08-24T11:53:58.313Z,370.00
2018-08-24T11:54:58.322Z,123.00
2018-08-24T11:55:58.361Z,166.20
2018-08-24T11:56:58.416Z,154.90
2018-08-24T11:57:58.470Z,189.70
2018-08-24T11:58:58.522Z,147.10
2018-08-24T11:59:58.580Z,122.20
2018-08-24T12:00:58.625Z,114.10
2018-08-24T12:01:58.705Z,110.10
2018-08-24T12:02:58.736Z,104.60
2018-08-24T12:03:58.780Z,100.80
2018-08-24T12:04:58.851Z,77.70
2018-08-24T12:05:58.893Z,78.30
2018-08-24T12:06:58.936Z,78.50
2018-08-24T12:07:59.027Z,69.70
2018-08-24T12:08:59.094Z,78.50
2018-08-24T12:09:59.149Z,78.70
2018-08-24T12:10:59.171Z,75.50
2018-08-24T12:11:59.213Z,80.40
2018-08-24T12:12:59.281Z,92.50
2018-08-24T12:13:59.557Z,84.90
2018-08-24T12:14:59.368Z,71.80
2018-08-24T12:15:59.443Z,65.50
2018-08-24T12:16:59.494Z,61.50
2018-08-24T12:17:59.557Z,79.50
2018-08-24T12:18:59.910Z,67.00
2018-08-24T12:19:59.635Z,385.20
2018-08-24T12:20:59.719Z,77.60
2018-08-24T12:21:59.759Z,69.10
2018-08-24T12:22:59.831Z,66.00
2018-08-24T12:23:59.882Z,75.70
2018-08-24T12:24:59.934Z,93.10
2018-08-24T12:26:00.002Z,245.70
2018-08-24T12:27:00.082Z,68.80
2018-08-24T12:28:00.097Z,77.50
2018-08-24T12:29:00.176Z,75.50
2018-08-24T12:30:00.193Z,106.10